Arctic Bay — 9HTD8 — position and weather

sailwx.info

Track history (hours):
 
Tides and Currents Weather Stations Pressure Air Temp Water Temp Dewpoint Dewpoint Depression Visibility Wind Speed Wind Dir Waves Ship Positions

Arctic Bay

Last reported at 2016-May-06 02:06 UTC. Time now 2016-May-06 14:57 UTC.
Position N 40°30' W 073°40'.

Length 182 m; draft 8 m.

Type: Ship. MMSI: 256396000.

Date/timePositionNaut miles runAvg speedWind from/ knotsBaromVisibWave heightAir tempDewpointWater temp
2016-May-06 02:06N 40°30' W 073°40'0 0.1
2016-May-06 01:28N 40°30' W 073°39'8 8.1
2016-May-06 00:31N 40°26' W 073°48'1110.8
2016-May-05 23:33N 40°32' W 074°01'7 7.2
2016-May-05 22:31N 40°38' W 074°04'0 0.0
2016-May-05 21:31N 40°38' W 074°04'0 0.2
2016-May-05 20:31N 40°38' W 074°04'0 0.1
2016-May-05 19:31N 40°38' W 074°04'0 0.0
2016-May-05 18:31N 40°38' W 074°04'0 0.0
2016-May-05 17:31N 40°38' W 074°04'0 0.0
2016-May-05 16:31N 40°38' W 074°04'4 3.7
2016-May-05 15:34N 40°39' W 074°09'7 0.2
2016-May-04 09:22N 40°33' W 074°15'4 3.8
2016-May-04 08:15N 40°30' W 074°11'7 9.9
2016-May-04 07:33N 40°29' W 074°02'1010.3
2016-May-04 06:34N 40°28' W 073°49'6 6.3
2016-May-04 05:33N 40°28' W 073°40'  
2016-May-01 10:32N 40°30' W 073°39'0 0.0
2016-May-01 09:32N 40°30' W 073°39'0 0.0
2016-May-01 08:21N 40°30' W 073°39'0 0.0
2016-May-01 07:33N 40°30' W 073°39'0 0.0
2016-May-01 06:33N 40°30' W 073°39'0 0.0
2016-May-01 04:30N 40°30' W 073°39'  
Track history (hours):
 
Tides and Currents Weather Stations Pressure Air Temp Water Temp Dewpoint Dewpoint Depression Visibility Wind Speed Wind Dir Waves Ship Positions

Arctic Bay

Last reported at 2016-May-06 02:06 UTC. Time now 2016-May-06 14:57 UTC.
Position N 40°30' W 073°40'.

Length 182 m; draft 8 m.

Type: Ship. MMSI: 256396000.

Date/timePositionNaut miles runAvg speedWind from/ knotsBaromVisibWave heightAir tempDewpointWater temp
2016-May-06 02:06N 40°30' W 073°40'0 0.1
2016-May-06 01:28N 40°30' W 073°39'8 8.1
2016-May-06 00:31N 40°26' W 073°48'1110.8
2016-May-05 23:33N 40°32' W 074°01'7 7.2
2016-May-05 22:31N 40°38' W 074°04'0 0.0
2016-May-05 21:31N 40°38' W 074°04'0 0.2
2016-May-05 20:31N 40°38' W 074°04'0 0.1
2016-May-05 19:31N 40°38' W 074°04'0 0.0
2016-May-05 18:31N 40°38' W 074°04'0 0.0
2016-May-05 17:31N 40°38' W 074°04'0 0.0
2016-May-05 16:31N 40°38' W 074°04'4 3.7
2016-May-05 15:34N 40°39' W 074°09'7 0.2
2016-May-04 09:22N 40°33' W 074°15'4 3.8
2016-May-04 08:15N 40°30' W 074°11'7 9.9
2016-May-04 07:33N 40°29' W 074°02'1010.3
2016-May-04 06:34N 40°28' W 073°49'6 6.3
2016-May-04 05:33N 40°28' W 073°40'  
2016-May-01 10:32N 40°30' W 073°39'0 0.0
2016-May-01 09:32N 40°30' W 073°39'0 0.0
2016-May-01 08:21N 40°30' W 073°39'0 0.0
2016-May-01 07:33N 40°30' W 073°39'0 0.0
2016-May-01 06:33N 40°30' W 073°39'0 0.0
2016-May-01 04:30N 40°30' W 073°39'  

Dump ship's entire track history